Time;durP1;ratioP1;P1;durP2;ratioP2;P2;SDS_P1;SDS_P2;PMS_P1;PMS_P2;Temp;Humidity;BMP_temperature;BMP_pressure;BME280_temperature;BME280_humidity;BME280_pressure;Samples;Min_cycle;Max_cycle;Signal;HPM_P1;HPM_P2
2022/10/28 00:01:30;;;;;;;23.23;6.90;;;14.80;99.90;;;14.07;100.00;101103.25;4103498;29;20054;-77
2022/10/28 00:03:31;;;;;;;20.05;6.43;;;14.80;99.90;;;14.03;100.00;101095.81;4120353;28;20116;-77
2022/10/28 00:05:35;;;;;;;26.95;7.55;;;14.70;99.90;;;14.04;100.00;101092.97;4120617;28;20059;-77
2022/10/28 00:07:36;;;;;;;16.25;6.30;;;14.70;99.90;;;14.00;100.00;101106.75;4119626;28;20043;-77
2022/10/28 00:09:37;;;;;;;28.25;7.80;;;14.70;99.90;;;13.99;100.00;101121.00;4103653;29;20031;-76
2022/10/28 00:11:37;;;;;;;27.35;7.40;;;14.70;99.90;;;13.97;100.00;101117.72;4120683;28;20042;-77
2022/10/28 00:13:40;;;;;;;21.60;7.47;;;14.70;99.90;;;13.92;100.00;101126.16;4120339;28;20027;-76
2022/10/28 00:15:40;;;;;;;32.63;7.65;;;14.60;99.90;;;13.95;100.00;101136.44;4103132;29;20107;-77
2022/10/28 00:17:41;;;;;;;23.33;7.18;;;14.70;99.90;;;13.88;100.00;101114.25;4120337;28;20483;-77
2022/10/28 00:19:42;;;;;;;21.85;7.72;;;14.60;99.90;;;13.91;100.00;101107.78;4119385;28;20446;-77
2022/10/28 00:21:44;;;;;;;21.90;7.57;;;14.60;99.90;;;13.93;100.00;101109.25;4103200;29;20078;-77
2022/10/28 00:23:45;;;;;;;29.23;7.55;;;14.60;99.90;;;13.93;100.00;101116.38;4119169;28;20048;-77
2022/10/28 00:25:46;;;;;;;39.55;8.27;;;14.60;99.90;;;13.92;100.00;101104.13;4103041;29;20031;-77
2022/10/28 00:27:47;;;;;;;23.38;7.05;;;14.60;99.90;;;13.84;100.00;101102.31;4120332;28;20050;-76
2022/10/28 00:29:48;;;;;;;20.60;7.72;;;14.50;99.90;;;13.84;100.00;101097.84;4119384;28;20051;-77
2022/10/28 00:31:51;;;;;;;23.00;6.68;;;14.50;99.90;;;13.76;100.00;101094.38;4120333;28;20034;-77
2022/10/28 00:33:52;;;;;;;21.13;7.43;;;14.50;99.90;;;13.73;100.00;101095.53;4102768;29;20092;-76
2022/10/28 00:35:53;;;;;;;24.40;7.82;;;14.40;99.90;;;13.72;100.00;101090.38;4103296;29;20038;-76
2022/10/28 00:37:54;;;;;;;18.88;6.65;;;14.40;99.90;;;13.62;100.00;101081.81;4120157;28;20027;-76
2022/10/28 00:39:54;;;;;;;22.13;6.75;;;14.40;99.90;;;13.60;100.00;101089.91;4119103;28;20023;-77
2022/10/28 00:42:02;;;;;;;20.63;6.60;;;14.40;99.90;;;13.54;100.00;101082.63;4120214;28;20023;-76
2022/10/28 00:44:59;;;;;;;22.15;7.55;;;14.30;99.90;;;13.52;100.00;101097.88;4119192;28;20482;-77
2022/10/28 00:47:00;;;;;;;27.75;6.85;;;14.30;99.90;;;13.49;100.00;101092.06;4120192;28;20043;-77
2022/10/28 00:49:22;;;;;;;19.17;6.38;;;14.20;99.90;;;13.49;100.00;101081.47;4120283;28;20081;-77
2022/10/28 00:51:25;;;;;;;26.95;7.60;;;14.20;99.90;;;13.49;100.00;101078.81;4119143;28;20034;-77
2022/10/28 00:53:30;;;;;;;22.42;7.43;;;14.20;99.90;;;13.42;100.00;101076.00;4119003;28;20027;-76
2022/10/28 00:55:32;;;;;;;21.52;7.30;;;14.20;99.90;;;13.45;100.00;101073.03;4118885;28;20037;-77
2022/10/28 00:57:36;;;;;;;27.08;7.30;;;14.20;99.90;;;13.38;100.00;101065.91;4120022;28;20042;-76
2022/10/28 00:59:41;;;;;;;;;;;14.10;99.90;;;13.30;100.00;101054.31;4118632;28;20054;-77
2022/10/28 01:01:42;;;;;;;18.17;5.97;;;14.10;99.90;;;13.33;100.00;101061.09;4118855;28;19952;-77
2022/10/28 01:03:43;;;;;;;17.67;6.13;;;14.00;99.90;;;13.32;100.00;101063.94;4120070;28;20399;-76
2022/10/28 01:05:47;;;;;;;15.23;6.70;;;14.00;99.90;;;13.26;100.00;101055.63;4119960;28;20031;-76
2022/10/28 01:07:52;;;;;;;20.15;6.45;;;13.90;99.90;;;13.24;100.00;101057.63;4118632;28;20030;-77
2022/10/28 01:09:53;;;;;;;20.95;6.70;;;13.90;99.90;;;13.20;100.00;101051.00;4118855;28;20073;-77
2022/10/28 01:12:41;;;;;;;17.20;6.43;;;13.90;99.90;;;13.17;100.00;101061.13;4118752;28;20533;-77
2022/10/28 01:15:11;;;;;;;17.70;7.20;;;13.90;99.90;;;13.15;100.00;101057.78;4118884;28;20045;-77
2022/10/28 01:17:52;;;;;;;18.50;7.55;;;13.90;99.90;;;13.09;100.00;101056.63;4119703;28;20023;-77
2022/10/28 01:20:35;;;;;;;22.02;7.20;;;13.80;99.90;;;13.04;100.00;101050.97;4098060;29;20414;-77
2022/10/28 01:22:53;;;;;;;13.27;6.35;;;13.80;99.90;;;13.02;100.00;101052.94;4102574;28;20032;-77
2022/10/28 01:25:26;;;;;;;15.05;5.95;;;13.70;99.90;;;12.99;100.00;101055.91;4120005;28;20085;-76
2022/10/28 01:27:58;;;;;;;16.85;6.18;;;13.70;99.90;;;13.00;100.00;101046.16;4102232;29;20078;-76
2022/10/28 01:30:08;;;;;;;16.75;5.63;;;13.70;99.90;;;12.99;100.00;101045.31;4112862;28;20030;-76
2022/10/28 01:32:36;;;;;;;19.77;6.95;;;13.70;99.90;;;12.99;100.00;101044.50;4119687;28;20495;-77
2022/10/28 01:35:13;;;;;;;23.27;7.90;;;13.70;99.90;;;12.94;100.00;101034.41;4119901;28;20150;-77
2022/10/28 01:37:52;;;;;;;22.05;7.05;;;13.70;99.90;;;12.92;100.00;101030.25;4118455;28;20030;-77
2022/10/28 01:40:13;;;;;;;23.17;6.93;;;13.70;99.90;;;12.91;100.00;101033.88;4118476;28;20034;-76
2022/10/28 01:42:22;;;;;;;15.40;6.60;;;13.60;99.90;;;12.87;100.00;101036.06;4119620;28;20058;-76
2022/10/28 01:45:01;;;;;;;15.70;6.32;;;13.60;99.90;;;12.81;100.00;101036.72;4102300;29;20031;-76
2022/10/28 01:48:05;;;;;;;16.90;5.82;;;13.50;99.90;;;12.76;100.00;101031.06;4084833;28;20093;-76
2022/10/28 01:50:12;;;;;;;25.25;7.15;;;13.50;99.90;;;12.73;100.00;101036.69;4102512;29;20031;-76
2022/10/28 01:52:20;;;;;;;21.90;8.30;;;13.50;99.90;;;12.71;100.00;101025.44;4103287;28;20554;-77
2022/10/28 01:54:26;;;;;;;19.60;7.70;;;13.50;99.90;;;12.74;100.00;101019.81;4119684;28;20486;-77
2022/10/28 01:56:33;;;;;;;21.63;6.95;;;13.40;99.90;;;12.75;100.00;101021.47;4118476;28;20027;-77
2022/10/28 01:58:35;;;;;;;19.55;7.60;;;13.40;99.90;;;12.62;100.00;100998.13;4118389;28;20034;-76
2022/10/28 02:00:37;;;;;;;16.75;6.60;;;13.40;99.90;;;12.76;100.00;101016.00;4118569;28;20023;-77
2022/10/28 02:02:40;;;;;;;26.98;7.10;;;13.50;99.90;;;12.78;100.00;101013.22;4118368;28;20034;-76
2022/10/28 02:04:40;;;;;;;29.08;7.85;;;13.50;99.90;;;12.81;100.00;101012.88;4118231;28;20026;-77
2022/10/28 02:06:45;;;;;;;23.33;6.95;;;13.50;99.90;;;12.79;100.00;101025.44;4107595;28;20379;-77
2022/10/28 02:09:13;;;;;;;18.10;7.75;;;13.50;99.90;;;12.78;100.00;101034.41;4125144;28;20189;-77
2022/10/28 02:11:52;;;;;;;23.15;7.20;;;13.50;99.90;;;12.79;100.00;101046.63;4100976;28;20593;-77
2022/10/28 02:14:30;;;;;;;24.55;8.45;;;13.50;99.90;;;12.78;100.00;101056.38;4122280;28;20110;-77
2022/10/28 02:16:43;;;;;;;26.42;7.75;;;13.50;99.90;;;12.87;100.00;101044.00;4105009;29;20070;-77
2022/10/28 02:19:24;;;;;;;20.52;6.95;;;13.60;99.90;;;12.91;100.00;101047.97;4105813;28;20034;-77
2022/10/28 02:21:55;;;;;;;18.88;7.57;;;13.60;99.90;;;12.93;100.00;101032.72;4107437;28;20042;-77
2022/10/28 02:24:30;;;;;;;26.55;7.43;;;13.60;99.90;;;12.99;100.00;101025.97;4122103;28;20031;-77
2022/10/28 02:26:42;;;;;;;21.10;7.10;;;13.70;99.90;;;13.02;100.00;101038.88;4120688;28;20047;-77
2022/10/28 02:29:20;;;;;;;18.90;6.55;;;13.70;99.90;;;13.05;100.00;101059.75;4122034;28;20047;-77
2022/10/28 02:31:39;;;;;;;23.90;8.90;;;13.80;99.90;;;13.09;100.00;101053.13;4122255;28;20026;-77
2022/10/28 02:33:43;;;;;;;22.65;8.20;;;13.80;99.90;;;13.17;100.00;101072.50;4120656;28;20027;-76
2022/10/28 02:35:56;;;;;;;20.10;6.93;;;13.90;99.90;;;13.26;100.00;101082.13;4121912;28;20058;-77
2022/10/28 02:38:02;;;;;;;22.67;8.98;;;13.90;99.90;;;13.42;100.00;101077.81;4120292;28;20085;-77
2022/10/28 02:40:09;;;;;;;22.90;9.77;;;14.00;99.90;;;13.60;100.00;101087.25;4120712;28;20514;-76
2022/10/28 02:42:24;;;;;;;27.63;9.02;;;14.20;99.90;;;13.74;100.00;101088.38;4120648;28;20027;-77
2022/10/28 02:44:32;;;;;;;;;;;14.40;99.90;;;13.81;100.00;101086.72;4104802;29;20447;-77
2022/10/28 02:46:37;;;;;;;21.25;8.73;;;14.50;99.90;;;13.88;100.00;101082.41;4117727;28;19910;-76
2022/10/28 02:48:48;;;;;;;25.98;9.57;;;14.60;99.90;;;13.96;100.00;101095.66;4104311;29;20035;-77
2022/10/28 02:51:00;;;;;;;26.40;8.60;;;14.60;99.90;;;14.00;100.00;101090.84;4112521;28;20042;-77
2022/10/28 02:53:13;;;;;;;21.13;8.15;;;14.70;99.90;;;14.09;100.00;101095.13;4120656;28;20049;-77
2022/10/28 02:55:14;;;;;;;26.42;9.13;;;14.70;99.90;;;14.17;100.00;101097.75;4120657;28;20545;-77
2022/10/28 02:57:34;;;;;;;25.42;10.27;;;14.80;99.90;;;14.23;100.00;101097.91;4121748;28;20031;-77
2022/10/28 02:59:35;;;;;;;21.42;8.30;;;14.90;99.90;;;14.25;100.00;101097.72;4120443;28;20027;-77
2022/10/28 03:01:37;;;;;;;19.40;7.63;;;14.90;99.90;;;14.30;100.00;101111.31;4121752;28;20023;-77
2022/10/28 03:03:38;;;;;;;26.48;9.25;;;14.90;99.90;;;14.31;100.00;101116.44;4121752;28;20030;-77
2022/10/28 03:05:39;;;;;;;18.60;9.13;;;15.00;99.90;;;14.31;100.00;101127.06;4120519;28;20033;-77
2022/10/28 03:07:40;;;;;;;20.15;7.38;;;15.00;99.90;;;14.36;100.00;101130.09;4104370;29;20028;-77
2022/10/28 03:09:41;;;;;;;20.80;8.15;;;15.10;99.90;;;14.42;100.00;101127.72;4120485;28;20046;-76
2022/10/28 03:11:42;;;;;;;19.35;7.07;;;15.10;99.90;;;14.45;100.00;101127.38;4121593;28;20027;-77
2022/10/28 03:13:43;;;;;;;23.63;7.75;;;15.10;99.90;;;14.46;100.00;101113.94;4121110;28;20037;-77
2022/10/28 03:15:45;;;;;;;20.27;8.25;;;15.10;99.90;;;14.50;100.00;101112.59;4121080;28;20053;-76
2022/10/28 03:17:46;;;;;;;15.45;7.63;;;15.10;99.90;;;14.50;100.00;101096.66;4121515;28;20505;-76
2022/10/28 03:19:47;;;;;;;17.58;7.53;;;15.20;99.90;;;14.56;100.00;101103.94;4120471;28;20035;-76
2022/10/28 03:21:47;;;;;;;20.08;7.03;;;15.20;99.90;;;14.56;100.00;101095.97;4120949;28;20540;-76
2022/10/28 03:23:48;;;;;;;18.77;7.60;;;15.20;99.90;;;14.51;100.00;101063.81;4119995;28;20026;-76
2022/10/28 03:25:49;;;;;;;22.60;7.53;;;15.30;99.90;;;14.59;100.00;101068.25;4121333;28;20030;-76
2022/10/28 03:27:50;;;;;;;16.83;6.85;;;15.30;99.90;;;14.59;100.00;101060.28;4103691;28;20062;-76
2022/10/28 03:29:51;;;;;;;15.90;7.22;;;15.30;99.90;;;14.64;100.00;101082.66;4104223;29;20432;-77
2022/10/28 03:31:52;;;;;;;15.63;6.40;;;15.30;99.90;;;14.66;100.00;101095.78;4103921;29;20031;-76
2022/10/28 03:33:53;;;;;;;14.98;6.40;;;15.40;99.90;;;14.68;100.00;101081.31;4120964;28;20390;-77
2022/10/28 03:35:53;;;;;;;18.27;6.97;;;15.40;99.90;;;14.60;100.00;101057.47;4119943;28;20035;-77
2022/10/28 03:37:54;;;;;;;14.30;7.20;;;15.40;99.90;;;14.65;100.00;101062.25;4120936;28;20027;-77
2022/10/28 03:39:55;;;;;;;17.50;7.07;;;15.40;99.90;;;14.70;100.00;101068.69;4119746;28;20031;-77
2022/10/28 03:41:56;;;;;;;19.50;7.65;;;15.40;99.90;;;14.69;100.00;101063.56;4120663;28;20475;-76
2022/10/28 03:43:57;;;;;;;16.73;6.93;;;15.40;99.90;;;14.70;100.00;101067.84;4119641;28;20092;-77
2022/10/28 03:45:58;;;;;;;16.90;6.97;;;15.40;99.90;;;14.71;100.00;101057.06;4087659;29;20038;-77
2022/10/28 03:47:59;;;;;;;16.20;6.60;;;15.40;99.90;;;14.73;100.00;101060.38;4119740;28;20030;-77
2022/10/28 03:50:00;;;;;;;15.35;6.78;;;15.40;99.90;;;14.72;100.00;101055.25;4103468;28;20024;-77
2022/10/28 03:52:00;;;;;;;13.48;6.72;;;15.40;99.90;;;14.72;100.00;101048.13;4108044;28;20066;-77
2022/10/28 03:54:01;;;;;;;17.65;5.95;;;15.40;99.90;;;14.74;100.00;101066.50;4103790;29;20055;-77
2022/10/28 03:56:03;;;;;;;14.30;6.18;;;15.40;99.90;;;14.73;100.00;101054.22;4115195;28;20026;-77
2022/10/28 03:58:04;;;;;;;16.80;6.50;;;15.40;99.90;;;14.67;100.00;101057.59;4119142;28;20518;-77
2022/10/28 04:00:06;;;;;;;19.35;7.78;;;15.40;99.90;;;14.63;100.00;101057.13;4120702;28;20031;-77
2022/10/28 04:02:06;;;;;;;26.98;7.63;;;15.30;99.90;;;14.61;100.00;101079.50;4120412;28;20070;-77
2022/10/28 04:04:07;;;;;;;17.60;7.60;;;15.30;99.90;;;14.55;100.00;101077.56;4119224;28;20034;-77
2022/10/28 04:06:11;;;;;;;18.45;7.00;;;15.20;99.90;;;14.52;100.00;101081.38;4120516;28;20030;-77
2022/10/28 04:08:12;;;;;;;20.73;8.27;;;15.20;99.90;;;14.47;100.00;101081.09;4120821;28;20034;-77
2022/10/28 04:10:13;;;;;;;16.95;5.78;;;15.10;99.90;;;14.45;100.00;101079.63;4103387;29;20038;-77
2022/10/28 04:12:14;;;;;;;19.15;7.18;;;15.10;99.90;;;14.40;100.00;101078.28;4120339;28;20579;-77
2022/10/28 04:14:15;;;;;;;16.45;7.07;;;15.10;99.90;;;14.33;100.00;101076.50;4119195;28;20027;-77
2022/10/28 04:16:16;;;;;;;15.38;7.25;;;15.10;99.90;;;14.31;100.00;101089.91;4103456;29;20031;-77
2022/10/28 04:18:17;;;;;;;15.77;6.85;;;15.00;99.90;;;14.25;100.00;101090.59;4119425;28;20553;-76
2022/10/28 04:20:18;;;;;;;17.70;6.80;;;15.00;99.90;;;14.25;100.00;101095.91;4119387;28;20031;-76
2022/10/28 04:22:19;;;;;;;19.95;7.15;;;15.00;99.90;;;14.21;100.00;101099.09;4120298;28;20027;-76
2022/10/28 04:24:20;;;;;;;15.88;7.15;;;14.90;99.90;;;14.14;100.00;101088.31;4119303;28;20035;-77
2022/10/28 04:26:20;;;;;;;22.90;7.63;;;14.90;99.90;;;14.13;100.00;101081.34;4102960;29;20027;-77
2022/10/28 04:28:24;;;;;;;18.92;7.57;;;14.80;99.90;;;14.10;100.00;101092.28;4102994;29;20506;-77
2022/10/28 04:30:25;;;;;;;19.50;7.47;;;14.80;99.90;;;14.06;100.00;101091.00;4103259;28;20528;-77
2022/10/28 04:32:26;;;;;;;17.85;7.70;;;14.80;99.90;;;14.08;100.00;101099.59;4119354;28;20054;-77
2022/10/28 04:34:27;;;;;;;20.98;7.75;;;14.80;99.90;;;14.06;100.00;101095.47;4118469;28;20039;-77
2022/10/28 04:36:28;;;;;;;17.80;7.68;;;14.70;99.90;;;14.07;100.00;101095.28;4103182;29;20074;-77
2022/10/28 04:38:29;;;;;;;16.65;8.00;;;14.80;99.90;;;14.05;100.00;101102.59;4120062;28;20058;-77
2022/10/28 04:40:30;;;;;;;15.82;6.28;;;14.70;99.90;;;14.02;100.00;101094.16;4120247;28;20029;-77
2022/10/28 04:42:31;;;;;;;18.00;8.02;;;14.70;99.90;;;14.06;100.00;101111.38;4118888;28;20585;-77
2022/10/28 04:44:31;;;;;;;20.65;6.80;;;14.70;99.90;;;13.95;100.00;101094.00;4102723;29;20031;-77
2022/10/28 04:46:32;;;;;;;19.55;7.88;;;14.70;99.90;;;14.06;100.00;101111.38;4102767;29;20027;-77
2022/10/28 04:48:34;;;;;;;23.13;7.75;;;14.70;99.90;;;14.01;100.00;101108.44;4120144;28;20042;-77
2022/10/28 04:50:35;;;;;;;18.75;8.18;;;14.70;99.90;;;14.06;100.00;101116.69;4102955;29;20031;-77
2022/10/28 04:52:36;;;;;;;20.13;7.32;;;14.80;99.90;;;14.07;100.00;101118.34;4118789;28;20075;-77
2022/10/28 04:54:37;;;;;;;14.23;6.55;;;14.80;99.90;;;14.11;100.00;101131.09;4119914;28;20066;-77
2022/10/28 04:56:38;;;;;;;16.58;7.63;;;14.80;99.90;;;14.10;100.00;101134.75;4118943;28;20394;-76
2022/10/28 04:58:39;;;;;;;17.45;7.68;;;14.80;99.90;;;14.10;100.00;101137.41;4102643;29;20035;-77
2022/10/28 05:00:40;;;;;;;19.55;7.50;;;14.80;99.90;;;14.12;100.00;101147.84;4119930;28;20034;-76
2022/10/28 05:02:41;;;;;;;18.92;8.13;;;14.80;99.90;;;14.13;100.00;101147.66;4102949;29;20086;-77
2022/10/28 05:04:41;;;;;;;15.52;6.75;;;14.80;99.90;;;14.13;100.00;101139.72;4120214;28;20482;-77
2022/10/28 05:06:42;;;;;;;17.67;8.10;;;14.80;99.90;;;14.16;100.00;101149.97;4102808;29;20038;-76
2022/10/28 05:08:43;;;;;;;16.25;7.55;;;14.80;99.90;;;14.15;100.00;101136.91;4120142;28;20363;-77
2022/10/28 05:10:47;;;;;;;24.73;8.48;;;14.90;99.90;;;14.15;100.00;101145.69;4118867;28;20131;-77
2022/10/28 05:12:48;;;;;;;;;;;14.80;99.90;;;14.04;100.00;101145.19;4120227;28;20058;-76
2022/10/28 05:14:49;;;;;;;17.90;7.43;;;14.80;99.90;;;14.06;100.00;101159.13;4120112;28;19921;-76
2022/10/28 05:16:50;;;;;;;18.50;7.00;;;14.80;99.90;;;14.05;100.00;101158.31;4120097;28;20474;-77
2022/10/28 05:18:50;;;;;;;20.95;7.95;;;14.80;99.90;;;14.06;100.00;101157.31;4118590;28;20054;-76
2022/10/28 05:20:53;;;;;;;25.35;7.57;;;14.80;99.90;;;14.15;100.00;101172.22;4102930;29;20509;-77
2022/10/28 05:22:55;;;;;;;22.35;8.70;;;14.90;99.90;;;14.23;100.00;101182.81;4118717;28;20106;-77
2022/10/28 05:24:56;;;;;;;20.42;7.75;;;14.90;99.90;;;14.42;100.00;101191.44;4102454;29;20030;-77
2022/10/28 05:26:59;;;;;;;16.48;7.25;;;15.00;99.90;;;14.45;100.00;101186.63;4101947;29;20023;-77
2022/10/28 05:29:00;;;;;;;22.55;9.07;;;15.10;99.90;;;14.50;100.00;101183.44;4089772;29;20498;-77
2022/10/28 05:31:01;;;;;;;21.63;8.95;;;15.20;99.90;;;14.54;100.00;101188.25;4119673;28;20034;-77
2022/10/28 05:33:03;;;;;;;19.20;7.95;;;15.20;99.90;;;14.56;100.00;101188.06;4121127;28;20430;-77
2022/10/28 05:35:05;;;;;;;23.33;6.88;;;15.20;99.90;;;14.57;100.00;101184.44;4121564;28;20019;-76
2022/10/28 05:37:05;;;;;;;26.90;8.07;;;15.20;99.90;;;14.54;100.00;101182.13;4118411;28;20026;-76
2022/10/28 05:39:06;;;;;;;20.20;6.75;;;15.30;99.90;;;14.59;100.00;101177.09;4118589;28;20430;-77
2022/10/28 05:41:07;;;;;;;21.63;8.07;;;15.30;99.90;;;14.56;100.00;101166.84;4102584;29;20208;-77
2022/10/28 05:43:09;;;;;;;17.65;6.70;;;15.30;99.90;;;14.56;100.00;101177.44;4119463;28;20494;-77
2022/10/28 05:45:10;;;;;;;14.25;6.80;;;15.30;99.90;;;14.53;100.00;101180.44;4118686;28;20031;-77
2022/10/28 05:47:11;;;;;;;16.40;6.78;;;15.20;99.90;;;14.50;100.00;101181.63;4122710;28;20035;-77
2022/10/28 05:49:12;;;;;;;16.38;6.63;;;15.20;99.90;;;14.45;100.00;101183.13;4122750;28;20110;-77
2022/10/28 05:51:12;;;;;;;19.02;6.65;;;15.20;99.90;;;14.41;100.00;101193.25;4105459;29;20035;-77
2022/10/28 05:53:13;;;;;;;13.48;6.53;;;15.10;99.90;;;14.41;100.00;101201.22;4105406;29;20082;-77
2022/10/28 05:55:18;;;;;;;20.70;7.20;;;15.10;99.90;;;14.45;100.00;101207.84;4105452;29;20027;-77
2022/10/28 05:57:19;;;;;;;20.52;6.70;;;15.10;99.90;;;14.40;100.00;101204.84;4121084;28;20470;-77
2022/10/28 05:59:20;;;;;;;14.30;6.63;;;15.10;99.90;;;14.42;100.00;101207.38;4122537;28;20023;-77
2022/10/28 06:01:20;;;;;;;20.27;6.60;;;15.10;99.90;;;14.38;100.00;101199.75;4122417;28;20031;-77
2022/10/28 06:03:21;;;;;;;18.50;5.93;;;15.10;99.90;;;14.36;100.00;101200.91;4121536;28;20395;-77
2022/10/28 06:05:22;;;;;;;21.40;6.65;;;15.10;99.90;;;14.35;100.00;101205.38;4121141;28;20054;-76
2022/10/28 06:07:23;;;;;;;19.30;6.68;;;15.10;99.90;;;14.33;100.00;101203.91;4105140;29;20031;-76
2022/10/28 06:09:27;;;;;;;17.75;6.10;;;15.10;99.90;;;14.34;100.00;101208.19;4122270;28;20050;-77
2022/10/28 06:11:28;;;;;;;;;;;15.10;99.90;;;14.33;100.00;101218.00;4105829;29;20038;-77
2022/10/28 06:13:29;;;;;;;18.38;6.75;;;15.10;99.90;;;14.36;100.00;101214.19;4122239;28;19910;-77
2022/10/28 06:15:30;;;;;;;24.25;7.28;;;15.10;99.90;;;14.40;100.00;101221.63;4121097;28;20537;-77
2022/10/28 06:17:31;;;;;;;29.95;7.00;;;15.20;99.90;;;14.45;100.00;101230.91;4089035;29;20020;-77
2022/10/28 06:19:31;;;;;;;23.80;6.45;;;15.20;99.90;;;14.55;100.00;101239.50;4121124;28;20026;-77
2022/10/28 06:21:32;;;;;;;27.38;6.50;;;15.20;99.90;;;14.63;100.00;101258.09;4105125;29;20030;-77
2022/10/28 06:23:33;;;;;;;19.00;6.78;;;15.30;99.90;;;14.64;100.00;101257.91;4121062;28;20031;-77
2022/10/28 06:25:34;;;;;;;20.70;6.13;;;15.40;99.90;;;14.73;100.00;101261.38;4104902;29;20087;-77
2022/10/28 06:27:35;;;;;;;23.13;6.85;;;15.40;99.90;;;14.79;100.00;101266.81;4120660;28;20113;-76
2022/10/28 06:29:35;;;;;;;26.17;5.82;;;15.50;99.90;;;14.83;100.00;101273.47;4122286;28;20075;-77
2022/10/28 06:31:43;;;;;;;16.65;4.88;;;15.50;99.90;;;14.82;100.00;101274.47;4122024;28;20031;-77
2022/10/28 06:33:44;;;;;;;15.80;5.28;;;15.50;99.90;;;14.87;100.00;101284.59;4120896;28;20034;-77
2022/10/28 06:35:45;;;;;;;17.95;4.68;;;15.50;99.90;;;14.87;100.00;101287.25;4120857;28;20035;-78
2022/10/28 06:37:45;;;;;;;20.92;5.75;;;15.60;99.90;;;14.95;100.00;101281.91;4104615;29;20394;-78
2022/10/28 06:39:50;;;;;;;19.05;5.38;;;15.60;99.90;;;14.95;100.00;101279.25;4116460;28;20502;-78
2022/10/28 06:41:51;;;;;;;18.75;4.00;;;15.60;99.90;;;14.99;100.00;101293.84;4120548;28;20018;-78
2022/10/28 06:43:52;;;;;;;18.77;4.45;;;15.70;99.90;;;15.03;100.00;101286.34;4104696;29;20059;-78
2022/10/28 06:45:55;;;;;;;13.00;2.85;;;15.70;99.90;;;15.06;100.00;101286.00;4121395;28;20035;-78
2022/10/28 06:48:03;;;;;;;15.32;2.85;;;15.70;99.90;;;15.08;100.00;101289.31;4121802;28;20122;-78
2022/10/28 06:50:04;;;;;;;13.85;3.38;;;15.80;99.90;;;15.12;100.00;101280.00;4120476;28;20570;-78
2022/10/28 06:52:05;;;;;;;5.72;2.42;;;15.80;99.90;;;15.11;100.00;101273.88;4121846;28;20109;-78
2022/10/28 06:54:06;;;;;;;13.52;2.67;;;15.80;99.90;;;15.14;100.00;101265.53;4120589;28;20030;-78
2022/10/28 06:56:08;;;;;;;12.38;2.53;;;15.90;99.90;;;15.19;100.00;101249.91;4121699;28;20085;-77
2022/10/28 06:58:09;;;;;;;12.38;3.28;;;15.90;99.90;;;15.26;100.00;101250.84;4103245;28;20455;-78
2022/10/28 07:00:11;;;;;;;13.85;2.05;;;16.00;99.90;;;15.35;100.00;101219.78;4121632;28;20039;-78
2022/10/28 07:02:12;;;;;;;11.65;2.58;;;16.00;99.90;;;15.39;100.00;101210.41;4120526;28;20030;-78
2022/10/28 07:04:13;;;;;;;12.57;2.90;;;16.10;99.90;;;15.41;100.00;101221.72;4120417;28;20058;-78
2022/10/28 07:06:15;;;;;;;14.38;2.38;;;16.10;99.90;;;15.45;100.00;101231.81;4120321;28;20058;-78
2022/10/28 07:08:16;;;;;;;10.52;1.95;;;16.10;99.90;;;15.45;100.00;101239.78;4121478;28;20022;-78
2022/10/28 07:10:17;;;;;;;8.88;1.77;;;16.20;99.90;;;15.43;100.00;101239.16;4121494;28;20506;-78
2022/10/28 07:12:18;;;;;;;8.32;2.83;;;16.20;99.90;;;15.43;100.00;101247.13;4120989;28;20038;-77
2022/10/28 07:14:19;;;;;;;11.90;2.25;;;16.20;99.90;;;15.46;100.00;101249.44;4119654;28;20027;-77
2022/10/28 07:16:20;;;;;;;14.57;2.13;;;16.20;99.90;;;15.42;100.00;101247.28;4121398;28;20117;-78
2022/10/28 07:18:22;;;;;;;5.75;1.98;;;16.20;99.90;;;15.42;100.00;101264.06;4103979;29;20030;-78
2022/10/28 07:20:25;;;;;;;11.55;2.00;;;16.20;99.90;;;15.41;100.00;101259.75;4120104;28;20027;-77
2022/10/28 07:22:26;;;;;;;10.67;1.50;;;16.20;99.90;;;15.40;100.00;101252.78;4121142;28;20034;-78
2022/10/28 07:24:27;;;;;;;10.82;1.77;;;16.20;99.90;;;15.42;100.00;101239.31;4121208;28;20490;-78
2022/10/28 07:26:28;;;;;;;7.95;1.77;;;16.20;99.90;;;15.41;100.00;101249.13;4127677;28;20061;-78
2022/10/28 07:28:28;;;;;;;11.02;2.22;;;16.20;99.90;;;15.34;100.00;101216.28;4103465;29;20142;-78
2022/10/28 07:30:30;;;;;;;10.32;2.10;;;16.20;99.90;;;15.54;100.00;101226.47;4119770;28;20074;-78
2022/10/28 07:32:32;;;;;;;6.05;1.50;;;16.30;99.90;;;15.53;100.00;101222.19;4121047;28;20078;-78
2022/10/28 07:34:33;;;;;;;12.40;2.10;;;16.30;99.90;;;15.57;100.00;101226.13;4120597;28;20512;-78
2022/10/28 07:36:34;;;;;;;9.52;2.20;;;16.30;99.90;;;15.69;100.00;101243.31;4103774;29;20059;-78
2022/10/28 07:38:35;;;;;;;9.20;1.90;;;16.40;99.90;;;15.70;100.00;101247.66;4120880;28;20025;-78
2022/10/28 07:40:36;;;;;;;13.80;2.45;;;16.40;99.90;;;15.71;100.00;101252.78;4121009;28;20034;-77
2022/10/28 07:42:39;;;;;;;9.63;2.70;;;16.40;99.90;;;15.68;100.00;101249.66;4120567;28;20106;-78
2022/10/28 07:44:39;;;;;;;11.85;2.35;;;16.50;99.90;;;15.72;100.00;101251.78;4117627;28;20401;-78
2022/10/28 07:46:41;;;;;;;7.43;2.45;;;16.50;99.90;;;15.78;100.00;101244.94;4102959;29;20031;-78
2022/10/28 07:48:42;;;;;;;11.98;2.40;;;16.50;99.90;;;15.86;100.00;101258.19;4107400;28;20039;-78
2022/10/28 07:50:42;;;;;;;9.98;1.83;;;16.60;99.90;;;15.98;100.00;101268.22;4102949;29;20023;-77
2022/10/28 07:52:43;;;;;;;7.78;1.95;;;16.70;99.90;;;16.07;100.00;101274.28;4120273;28;20043;-77
2022/10/28 07:54:44;;;;;;;13.07;2.42;;;16.80;99.90;;;16.15;100.00;101270.75;4118567;28;20518;-77
2022/10/28 07:56:45;;;;;;;9.20;1.52;;;16.80;99.90;;;16.12;100.00;101279.09;4102158;29;20035;-77
2022/10/28 07:58:46;;;;;;;6.68;2.20;;;16.90;99.90;;;16.13;100.00;101286.88;4118842;28;20038;-77
2022/10/28 08:00:47;;;;;;;11.57;2.40;;;16.90;99.90;;;16.07;100.00;101292.13;4120344;28;20033;-78
2022/10/28 08:02:48;;;;;;;12.10;2.45;;;16.90;99.90;;;16.04;100.00;101295.94;4120024;28;20082;-76
2022/10/28 08:04:49;;;;;;;8.80;1.85;;;16.90;99.90;;;16.02;100.00;101289.97;4118645;28;20039;-76
2022/10/28 08:06:50;;;;;;;5.95;1.50;;;16.90;99.90;;;16.14;100.00;101304.53;4103035;29;20403;-77
2022/10/28 08:08:56;;;;;;;8.88;1.70;;;16.90;99.90;;;16.22;100.00;101312.44;4119921;28;20046;-76
2022/10/28 08:10:56;;;;;;;12.23;1.77;;;16.90;99.90;;;16.20;100.00;101309.13;4119687;28;20142;-78
2022/10/28 08:12:59;;;;;;;16.33;2.97;;;17.00;99.90;;;16.22;100.00;101324.94;4119870;28;20036;-77
2022/10/28 08:15:01;;;;;;;7.72;1.60;;;17.00;99.90;;;16.25;100.00;101330.72;4118348;28;20442;-77
2022/10/28 08:17:02;;;;;;;8.27;1.90;;;17.00;99.90;;;16.23;100.00;101337.22;4120172;28;20034;-78
2022/10/28 08:19:03;;;;;;;7.55;1.50;;;17.00;99.90;;;16.21;100.00;101332.09;4118674;28;20038;-77
2022/10/28 08:21:06;;;;;;;10.90;2.15;;;17.00;99.90;;;16.26;100.00;101340.38;4119832;28;20034;-77
2022/10/28 08:23:07;;;;;;;7.72;2.33;;;17.00;99.90;;;16.27;100.00;101343.88;4118625;28;20090;-78
2022/10/28 08:25:08;;;;;;;13.15;2.58;;;17.00;99.90;;;16.30;100.00;101346.16;4118604;28;20477;-78
2022/10/28 08:27:09;;;;;;;15.15;2.50;;;17.00;99.90;;;16.26;100.00;101340.38;4118428;28;20110;-77
2022/10/28 08:29:11;;;;;;;11.80;2.15;;;17.10;99.90;;;16.34;100.00;101350.94;4118753;28;20534;-77
2022/10/28 08:31:12;;;;;;;9.63;1.25;;;17.10;99.90;;;16.36;100.00;101346.28;4120309;28;20027;-78